createdAt,value
2018-03-16T00:01:55.047Z,85.60
2018-03-16T00:04:22.642Z,85.70
2018-03-16T00:06:50.226Z,85.80
2018-03-16T00:09:17.826Z,85.70
2018-03-16T00:11:45.402Z,85.70
2018-03-16T00:14:13.006Z,85.80
2018-03-16T00:16:41.358Z,85.90
2018-03-16T00:19:08.967Z,85.70
2018-03-16T00:21:36.554Z,85.90
2018-03-16T00:24:04.163Z,85.90
2018-03-16T00:26:32.509Z,86.10
2018-03-16T00:29:00.120Z,86.00
2018-03-16T00:31:28.462Z,86.20
2018-03-16T00:33:56.831Z,86.50
2018-03-16T00:36:24.431Z,86.40
2018-03-16T00:38:52.002Z,86.60
2018-03-16T00:41:19.603Z,86.70
2018-03-16T00:43:47.868Z,86.90
2018-03-16T00:46:15.466Z,87.00
2018-03-16T00:48:43.039Z,87.20
2018-03-16T00:51:10.641Z,87.40
2018-03-16T00:53:38.215Z,87.60
2018-03-16T00:56:05.814Z,87.90
2018-03-16T00:58:33.418Z,88.00
2018-03-16T01:04:00.958Z,88.40
2018-03-16T01:06:29.328Z,88.40
2018-03-16T01:08:56.953Z,88.30
2018-03-16T01:11:24.819Z,88.60
2018-03-16T01:13:53.195Z,88.90
2018-03-16T01:16:20.781Z,88.80
2018-03-16T01:18:48.452Z,88.80
2018-03-16T01:21:16.031Z,88.90
2018-03-16T01:23:43.630Z,88.90
2018-03-16T01:26:11.222Z,88.90
2018-03-16T01:28:38.798Z,88.90
2018-03-16T01:31:06.398Z,88.90
2018-03-16T01:33:33.977Z,88.90
2018-03-16T01:36:01.574Z,88.90
2018-03-16T01:38:29.145Z,88.90
2018-03-16T01:40:56.742Z,89.00
2018-03-16T01:43:24.350Z,89.00
2018-03-16T01:45:52.775Z,89.00
2018-03-16T01:48:20.379Z,88.90
2018-03-16T01:50:47.955Z,89.00
2018-03-16T01:53:18.270Z,88.90
2018-03-16T01:55:46.614Z,89.00
2018-03-16T01:58:14.222Z,88.90
2018-03-16T02:00:41.802Z,89.00
2018-03-16T02:03:09.408Z,89.00
2018-03-16T02:05:37.023Z,89.00
2018-03-16T02:08:05.374Z,89.00
2018-03-16T02:10:32.983Z,88.80
2018-03-16T02:13:00.582Z,88.90
2018-03-16T02:15:28.949Z,88.90
2018-03-16T02:17:56.543Z,88.80
2018-03-16T02:20:24.161Z,88.80
2018-03-16T02:22:52.526Z,88.80
2018-03-16T02:25:20.107Z,88.80
2018-03-16T02:27:47.715Z,88.80
2018-03-16T02:30:15.297Z,88.80
2018-03-16T02:32:42.915Z,88.70
2018-03-16T02:35:11.272Z,88.80
2018-03-16T02:37:39.116Z,88.80
2018-03-16T02:40:06.801Z,88.80
2018-03-16T02:42:35.138Z,88.90
2018-03-16T02:45:02.751Z,88.90
2018-03-16T02:47:30.336Z,89.00
2018-03-16T02:49:57.970Z,89.10
2018-03-16T02:52:25.552Z,89.00
2018-03-16T02:54:53.182Z,89.20
2018-03-16T02:57:20.787Z,89.00
2018-03-16T02:59:48.458Z,89.10
2018-03-16T03:02:16.058Z,89.30
2018-03-16T03:04:43.632Z,89.30
2018-03-16T03:07:11.234Z,89.20
2018-03-16T03:09:38.809Z,89.40
2018-03-16T03:12:06.414Z,89.30
2018-03-16T03:14:34.790Z,90.00
2018-03-16T03:17:02.394Z,89.40
2018-03-16T03:19:29.995Z,89.40
2018-03-16T03:21:57.570Z,89.40
2018-03-16T03:24:25.208Z,89.40
2018-03-16T03:26:52.778Z,89.50
2018-03-16T03:29:20.402Z,89.60
2018-03-16T03:31:47.974Z,89.60
2018-03-16T03:34:15.640Z,89.60
2018-03-16T03:36:43.223Z,89.50
2018-03-16T03:39:10.801Z,89.50
2018-03-16T03:41:38.405Z,89.50
2018-03-16T03:44:06.746Z,89.40
2018-03-16T03:46:34.350Z,89.30
2018-03-16T03:49:01.929Z,89.30
2018-03-16T03:51:30.304Z,90.00
2018-03-16T03:53:57.905Z,90.00
2018-03-16T03:56:25.490Z,89.30
2018-03-16T03:58:53.097Z,89.30
2018-03-16T04:01:20.675Z,89.20
2018-03-16T04:03:48.270Z,89.30
2018-03-16T04:06:16.841Z,89.30
2018-03-16T04:08:44.664Z,89.30
2018-03-16T04:11:12.334Z,89.30
2018-03-16T04:13:39.909Z,89.30
2018-03-16T04:16:07.514Z,89.40
2018-03-16T04:18:35.090Z,89.50
2018-03-16T04:21:02.698Z,89.60
2018-03-16T04:23:30.279Z,89.70
2018-03-16T04:25:58.626Z,89.90
2018-03-16T04:28:27.095Z,90.00
2018-03-16T04:30:54.690Z,90.00
2018-03-16T04:36:26.191Z,90.00
2018-03-16T04:38:53.771Z,90.00
2018-03-16T04:41:21.395Z,90.00
2018-03-16T04:43:49.076Z,90.00
2018-03-16T04:46:16.940Z,90.10
2018-03-16T04:48:44.619Z,90.10
2018-03-16T04:51:12.232Z,90.20
2018-03-16T04:53:39.895Z,90.30
2018-03-16T04:56:08.299Z,90.40
2018-03-16T04:58:36.663Z,90.50
2018-03-16T05:01:04.369Z,90.50
2018-03-16T05:03:31.986Z,90.50
2018-03-16T05:05:59.675Z,90.50
2018-03-16T05:08:27.307Z,90.50
2018-03-16T05:10:54.967Z,90.50
2018-03-16T05:13:22.595Z,90.40
2018-03-16T05:15:50.291Z,90.50
2018-03-16T05:18:17.924Z,90.50
2018-03-16T05:20:45.553Z,90.50
2018-03-16T05:23:13.205Z,90.50
2018-03-16T05:25:40.833Z,90.50
2018-03-16T05:28:08.512Z,90.50
2018-03-16T05:30:36.196Z,90.50
2018-03-16T05:33:03.839Z,90.60
2018-03-16T05:35:31.528Z,90.60
2018-03-16T05:37:59.153Z,90.70
2018-03-16T05:40:26.816Z,90.70
2018-03-16T05:42:54.429Z,90.70
2018-03-16T05:45:22.112Z,90.70
2018-03-16T05:47:49.779Z,90.70
2018-03-16T05:50:17.479Z,90.70
2018-03-16T05:52:45.879Z,90.80
2018-03-16T05:55:13.539Z,90.80
2018-03-16T05:57:41.188Z,90.80
2018-03-16T06:00:08.877Z,90.90
2018-03-16T06:02:36.540Z,90.90
2018-03-16T06:05:04.503Z,90.90
2018-03-16T06:07:32.168Z,90.90
2018-03-16T06:10:00.586Z,90.70
2018-03-16T06:12:28.219Z,91.00
2018-03-16T06:14:55.867Z,91.00
2018-03-16T06:17:24.287Z,91.00
2018-03-16T06:19:51.964Z,91.00
2018-03-16T06:22:20.399Z,91.10
2018-03-16T06:24:48.054Z,91.00
2018-03-16T06:27:16.434Z,91.10
2018-03-16T06:29:44.111Z,91.10
2018-03-16T06:32:11.757Z,91.10
2018-03-16T06:34:39.448Z,91.20
2018-03-16T06:37:07.081Z,91.30
2018-03-16T06:39:34.725Z,91.30
2018-03-16T06:42:02.358Z,91.30
2018-03-16T06:44:30.003Z,91.30
2018-03-16T06:46:57.637Z,91.40
2018-03-16T06:49:26.100Z,91.50
2018-03-16T06:51:53.742Z,91.50
2018-03-16T06:54:22.172Z,91.50
2018-03-16T06:56:49.791Z,91.50
2018-03-16T07:02:21.675Z,91.60
2018-03-16T07:04:50.073Z,91.70
2018-03-16T07:07:17.682Z,91.60
2018-03-16T07:09:45.356Z,91.70
2018-03-16T07:12:13.748Z,91.70
2018-03-16T07:14:41.420Z,91.70
2018-03-16T07:17:09.063Z,91.70
2018-03-16T07:19:36.699Z,91.80
2018-03-16T07:22:04.379Z,91.70
2018-03-16T07:24:31.995Z,91.80
2018-03-16T07:27:00.383Z,91.70
2018-03-16T07:29:27.991Z,91.70
2018-03-16T07:31:57.469Z,91.60
2018-03-16T07:34:25.193Z,91.60
2018-03-16T07:36:52.816Z,91.60
2018-03-16T07:39:21.219Z,91.60
2018-03-16T07:41:48.856Z,91.60
2018-03-16T07:44:16.495Z,91.50
2018-03-16T07:46:44.149Z,91.50
2018-03-16T07:49:12.575Z,91.50
2018-03-16T07:51:40.997Z,91.40
2018-03-16T07:54:08.621Z,91.40
2018-03-16T07:56:36.295Z,91.40
2018-03-16T07:59:14.361Z,91.30
2018-03-16T08:01:42.035Z,91.30
2018-03-16T08:04:10.450Z,91.20
2018-03-16T08:06:38.141Z,91.20
2018-03-16T08:09:05.860Z,91.10
2018-03-16T08:11:33.496Z,91.10
2018-03-16T08:14:01.190Z,91.00
2018-03-16T08:16:28.828Z,90.90
2018-03-16T08:18:56.498Z,90.80
2018-03-16T08:21:24.179Z,90.80
2018-03-16T08:23:51.835Z,90.70
2018-03-16T08:26:19.523Z,90.60
2018-03-16T08:28:47.158Z,90.50
2018-03-16T08:31:14.891Z,90.40
2018-03-16T08:33:43.279Z,90.40
2018-03-16T08:36:10.919Z,90.30
2018-03-16T08:38:38.543Z,90.20
2018-03-16T08:41:06.192Z,90.10
2018-03-16T08:43:33.831Z,90.00
2018-03-16T08:46:01.933Z,89.90
2018-03-16T08:48:30.496Z,89.70
2018-03-16T08:50:58.148Z,89.60
2018-03-16T08:53:26.563Z,89.30
2018-03-16T08:55:54.983Z,89.10
2018-03-16T08:58:22.733Z,89.00
2018-03-16T09:00:50.360Z,88.90
2018-03-16T09:03:17.988Z,88.90
2018-03-16T09:05:45.628Z,88.70
2018-03-16T09:08:13.287Z,89.10
2018-03-16T09:10:40.962Z,88.30
2018-03-16T09:13:26.415Z,87.90
2018-03-16T09:15:54.089Z,87.90
2018-03-16T09:18:21.732Z,87.60
2018-03-16T09:20:50.148Z,87.20
2018-03-16T09:23:18.549Z,86.90
2018-03-16T09:25:46.992Z,86.60
2018-03-16T09:28:14.631Z,86.60
2018-03-16T09:30:42.288Z,86.40
2018-03-16T09:33:09.892Z,86.90
2018-03-16T09:35:37.595Z,85.90
2018-03-16T09:38:05.213Z,85.70
2018-03-16T09:40:32.869Z,85.70
2018-03-16T09:43:01.296Z,86.20
2018-03-16T09:45:29.709Z,86.30
2018-03-16T09:47:57.360Z,86.30
2018-03-16T09:50:25.006Z,86.30
2018-03-16T09:52:52.663Z,86.30
2018-03-16T09:58:22.802Z,86.00
2018-03-16T10:00:50.370Z,85.90
2018-03-16T10:03:17.975Z,85.80
2018-03-16T10:05:46.311Z,85.90
2018-03-16T10:08:14.676Z,86.00
2018-03-16T10:10:42.275Z,86.00
2018-03-16T10:13:09.850Z,85.90
2018-03-16T10:15:37.462Z,86.00
2018-03-16T10:18:05.059Z,86.10
2018-03-16T10:20:33.422Z,86.20
2018-03-16T10:23:00.996Z,86.20
2018-03-16T10:25:28.589Z,86.00
2018-03-16T10:27:56.917Z,86.00
2018-03-16T10:30:24.483Z,86.00
2018-03-16T10:32:52.842Z,86.10
2018-03-16T10:35:30.745Z,86.00
2018-03-16T10:37:59.627Z,86.40
2018-03-16T10:40:27.603Z,86.30
2018-03-16T10:42:56.246Z,86.30
2018-03-16T10:45:23.824Z,86.30
2018-03-16T10:47:51.390Z,86.20
2018-03-16T10:50:18.995Z,86.00
2018-03-16T10:52:46.599Z,86.10
2018-03-16T11:04:12.527Z,85.70
2018-03-16T11:06:40.906Z,85.50
2018-03-16T11:09:08.483Z,85.50
2018-03-16T11:11:36.091Z,85.60
2018-03-16T11:14:03.693Z,85.60
2018-03-16T11:16:36.959Z,85.20
2018-03-16T11:19:04.639Z,85.00
2018-03-16T11:21:32.235Z,84.60
2018-03-16T11:23:59.815Z,83.70
2018-03-16T11:26:27.429Z,83.20
2018-03-16T11:28:55.029Z,83.00
2018-03-16T11:31:22.599Z,82.90
2018-03-16T11:33:50.963Z,82.40
2018-03-16T11:36:18.689Z,82.40
2018-03-16T11:56:22.513Z,83.90
2018-03-16T11:58:50.282Z,84.20
2018-03-16T12:01:17.878Z,84.50
2018-03-16T12:03:45.654Z,84.80
2018-03-16T12:06:13.507Z,85.10
2018-03-16T12:08:41.268Z,85.10
2018-03-16T12:11:10.191Z,85.10
2018-03-16T12:13:37.832Z,84.70
2018-03-16T12:16:05.641Z,84.80
2018-03-16T12:18:34.035Z,84.80
2018-03-16T12:21:03.539Z,84.80
2018-03-16T12:23:32.590Z,84.80
2018-03-16T12:26:00.665Z,84.80
2018-03-16T12:28:49.210Z,84.60
2018-03-16T12:30:56.037Z,84.30
2018-03-16T12:33:24.101Z,84.40
2018-03-16T12:35:51.722Z,84.40
2018-03-16T12:38:19.299Z,84.30
2018-03-16T12:40:46.894Z,84.30
2018-03-16T12:43:14.458Z,84.40
2018-03-16T12:48:58.794Z,84.60
2018-03-16T12:51:26.423Z,84.60
2018-03-16T12:53:54.770Z,84.60
2018-03-16T12:56:22.383Z,84.60
2018-03-16T12:58:49.990Z,84.70
2018-03-16T13:01:18.343Z,85.20
2018-03-16T13:03:45.951Z,85.10
2018-03-16T13:06:13.522Z,85.10
2018-03-16T13:08:41.126Z,85.10
2018-03-16T13:11:08.713Z,85.10
2018-03-16T13:13:36.318Z,85.40
2018-03-16T13:16:04.690Z,85.90
2018-03-16T13:18:32.296Z,85.90
2018-03-16T13:20:59.902Z,86.00
2018-03-16T13:23:28.239Z,86.40
2018-03-16T13:25:55.838Z,86.40
2018-03-16T13:28:23.415Z,86.60
2018-03-16T13:30:51.355Z,86.70
2018-03-16T13:33:18.928Z,86.90
2018-03-16T13:35:46.527Z,87.10
2018-03-16T13:38:14.899Z,88.10
2018-03-16T13:40:43.099Z,87.10
2018-03-16T13:43:10.710Z,87.30
2018-03-16T13:54:22.433Z,87.20
2018-03-16T13:56:50.796Z,87.30
2018-03-16T13:59:18.391Z,87.20
2018-03-16T14:01:45.978Z,87.30
2018-03-16T14:04:14.365Z,88.30
2018-03-16T14:06:41.940Z,88.10
2018-03-16T14:09:09.686Z,87.10
2018-03-16T14:11:37.267Z,87.00
2018-03-16T14:14:05.634Z,86.80
2018-03-16T14:16:33.202Z,86.80
2018-03-16T14:19:00.794Z,86.70
2018-03-16T14:21:28.367Z,86.60
2018-03-16T14:23:55.970Z,86.30
2018-03-16T14:26:23.543Z,86.00
2018-03-16T14:28:51.146Z,85.70
2018-03-16T14:31:18.734Z,85.60
2018-03-16T14:33:46.306Z,85.40
2018-03-16T14:36:13.922Z,85.40
2018-03-16T14:38:41.495Z,85.40
2018-03-16T14:41:09.089Z,85.20
2018-03-16T14:43:36.664Z,85.00
2018-03-16T14:46:04.267Z,84.90
2018-03-16T14:48:31.834Z,84.90
2018-03-16T14:51:00.195Z,84.90
2018-03-16T14:53:27.887Z,85.70
2018-03-16T14:55:55.450Z,84.90
2018-03-16T14:58:23.815Z,84.80
2018-03-16T15:00:51.398Z,84.70
2018-03-16T15:03:18.999Z,84.50
2018-03-16T15:05:46.571Z,84.20
2018-03-16T15:08:14.191Z,83.70
2018-03-16T15:10:42.554Z,83.00
2018-03-16T15:13:10.130Z,82.90
2018-03-16T15:15:37.738Z,82.40
2018-03-16T15:18:05.302Z,82.00
2018-03-16T15:20:32.894Z,81.40
2018-03-16T15:23:00.458Z,80.90
2018-03-16T15:25:28.081Z,80.70
2018-03-16T15:27:55.652Z,80.60
2018-03-16T15:30:23.258Z,80.40
2018-03-16T15:32:50.827Z,80.50
2018-03-16T15:35:18.431Z,80.60
2018-03-16T15:37:46.019Z,80.40
2018-03-16T15:40:13.623Z,80.30
2018-03-16T15:42:41.971Z,80.20
2018-03-16T15:45:09.573Z,80.20
2018-03-16T15:47:37.146Z,80.20
2018-03-16T15:56:02.382Z,80.40
2018-03-16T15:58:29.979Z,80.60
2018-03-16T16:00:57.546Z,80.60
2018-03-16T16:03:25.146Z,80.70
2018-03-16T16:05:52.722Z,80.90
2018-03-16T16:08:20.319Z,81.10
2018-03-16T16:10:47.890Z,81.20
2018-03-16T16:13:16.394Z,81.60
2018-03-16T16:15:44.000Z,81.60
2018-03-16T16:18:12.331Z,81.90
2018-03-16T16:20:39.926Z,81.90
2018-03-16T16:23:07.492Z,82.10
2018-03-16T16:25:35.855Z,82.30
2018-03-16T16:28:03.425Z,82.30
2018-03-16T16:30:31.025Z,82.40
2018-03-16T16:32:58.626Z,82.50
2018-03-16T16:35:26.193Z,82.60
2018-03-16T16:37:53.799Z,82.70
2018-03-16T16:40:21.362Z,82.90
2018-03-16T16:42:48.959Z,83.00
2018-03-16T16:45:16.526Z,83.00
2018-03-16T16:47:44.137Z,83.10
2018-03-16T16:50:11.995Z,83.30
2018-03-16T16:52:40.735Z,83.60
2018-03-16T16:55:08.497Z,83.60
2018-03-16T16:57:36.274Z,83.60
2018-03-16T17:00:04.675Z,84.00
2018-03-16T17:02:40.610Z,84.00
2018-03-16T17:05:08.294Z,84.00
2018-03-16T17:07:36.643Z,84.40
2018-03-16T17:10:05.807Z,84.40
2018-03-16T17:12:34.216Z,84.80
2018-03-16T17:15:02.629Z,85.10
2018-03-16T17:17:30.777Z,85.10
2018-03-16T17:19:58.481Z,85.40
2018-03-16T17:22:26.233Z,85.90
2018-03-16T17:24:53.884Z,86.20
2018-03-16T17:27:22.331Z,86.80
2018-03-16T17:35:53.003Z,87.40
2018-03-16T17:38:20.656Z,87.70
2018-03-16T17:40:49.131Z,88.50
2018-03-16T17:43:16.758Z,88.00
2018-03-16T17:45:45.171Z,88.60
2018-03-16T17:48:13.564Z,88.90
2018-03-16T17:50:41.244Z,88.90
2018-03-16T17:53:08.909Z,89.00
2018-03-16T17:55:36.526Z,89.20
2018-03-16T17:58:04.211Z,89.60
2018-03-16T18:00:31.836Z,89.70
2018-03-16T18:02:59.526Z,90.00
2018-03-16T18:05:27.128Z,90.00
2018-03-16T18:07:54.775Z,90.00
2018-03-16T18:10:23.208Z,90.20
2018-03-16T18:12:50.819Z,90.20
2018-03-16T18:15:18.485Z,90.20
2018-03-16T18:17:46.120Z,90.30
2018-03-16T18:20:13.869Z,90.30
2018-03-16T18:22:41.523Z,90.30
2018-03-16T18:25:09.963Z,90.70
2018-03-16T18:27:37.600Z,90.40
2018-03-16T18:30:05.351Z,90.50
2018-03-16T18:32:33.022Z,90.60
2018-03-16T18:35:01.494Z,90.60
2018-03-16T18:37:29.170Z,90.60
2018-03-16T18:39:57.219Z,90.70
2018-03-16T18:42:25.665Z,90.80
2018-03-16T18:44:53.290Z,90.80
2018-03-16T18:47:20.960Z,90.80
2018-03-16T18:49:48.595Z,90.80
2018-03-16T18:52:17.114Z,90.90
2018-03-16T18:54:45.547Z,90.90
2018-03-16T18:57:13.216Z,90.90
2018-03-16T18:59:40.862Z,91.00
2018-03-16T19:02:08.479Z,91.00
2018-03-16T19:04:36.131Z,91.00
2018-03-16T19:07:03.756Z,91.10
2018-03-16T19:09:31.416Z,91.00
2018-03-16T19:11:59.820Z,91.00
2018-03-16T19:14:28.276Z,91.00
2018-03-16T19:16:55.912Z,91.00
2018-03-16T19:19:24.360Z,91.10
2018-03-16T19:21:52.011Z,91.10
2018-03-16T19:24:20.444Z,91.10
2018-03-16T19:26:48.080Z,91.10
2018-03-16T19:29:15.740Z,91.10
2018-03-16T19:31:43.428Z,91.10
2018-03-16T19:34:11.095Z,91.20
2018-03-16T19:36:38.782Z,91.20
2018-03-16T19:39:06.419Z,91.20
2018-03-16T19:41:34.120Z,91.20
2018-03-16T19:44:01.748Z,91.20
2018-03-16T19:46:29.411Z,91.20
2018-03-16T19:48:57.059Z,91.20
2018-03-16T19:51:24.745Z,91.20
2018-03-16T19:53:52.376Z,91.20
2018-03-16T19:56:20.065Z,91.30
2018-03-16T19:58:47.763Z,91.30
2018-03-16T20:01:15.403Z,91.30
2018-03-16T20:03:43.212Z,91.40
2018-03-16T20:06:10.848Z,91.40
2018-03-16T20:08:38.522Z,91.40
2018-03-16T20:11:06.915Z,91.40
2018-03-16T20:13:34.556Z,91.40
2018-03-16T20:16:02.192Z,91.40
2018-03-16T20:18:30.609Z,91.50
2018-03-16T20:20:58.252Z,91.50
2018-03-16T20:23:25.957Z,91.70
2018-03-16T20:25:53.648Z,91.60
2018-03-16T20:28:21.322Z,91.60
2018-03-16T20:30:48.983Z,91.60
2018-03-16T20:33:17.379Z,91.60
2018-03-16T20:35:45.821Z,91.70
2018-03-16T20:38:13.451Z,91.70
2018-03-16T20:40:41.117Z,91.70
2018-03-16T20:43:08.757Z,91.70
2018-03-16T20:45:51.896Z,91.70
2018-03-16T20:48:20.287Z,91.70
2018-03-16T20:50:48.711Z,92.10
2018-03-16T20:53:16.404Z,91.70
2018-03-16T20:55:44.025Z,91.60
2018-03-16T20:58:11.709Z,91.50
2018-03-16T21:00:39.336Z,91.40
2018-03-16T21:03:06.976Z,91.40
2018-03-16T21:05:34.635Z,91.40
2018-03-16T21:13:55.636Z,91.50
2018-03-16T21:16:23.297Z,91.40
2018-03-16T21:18:51.501Z,91.40
2018-03-16T21:21:19.179Z,91.40
2018-03-16T21:23:46.892Z,91.40
2018-03-16T21:29:19.904Z,91.50
2018-03-16T21:32:06.927Z,91.50
2018-03-16T21:34:38.100Z,91.60
2018-03-16T21:37:06.688Z,91.50
2018-03-16T21:39:34.349Z,91.50
2018-03-16T21:42:02.099Z,91.50
2018-03-16T21:44:30.592Z,91.50
2018-03-16T21:46:58.290Z,91.50
2018-03-16T21:49:46.584Z,91.50
2018-03-16T22:01:11.971Z,91.40
2018-03-16T22:06:53.091Z,91.40
2018-03-16T22:09:20.741Z,91.30
2018-03-16T22:11:48.392Z,91.30
2018-03-16T22:14:16.048Z,91.30
2018-03-16T22:16:43.683Z,91.30
2018-03-16T22:19:11.327Z,91.40
2018-03-16T22:21:38.984Z,91.50
2018-03-16T22:24:06.632Z,91.40
2018-03-16T22:26:35.065Z,91.40
2018-03-16T22:29:02.708Z,91.40
2018-03-16T22:31:30.383Z,91.40
2018-03-16T22:33:58.032Z,91.40
2018-03-16T22:36:25.722Z,91.40
2018-03-16T22:38:53.398Z,91.40
2018-03-16T22:41:21.791Z,91.30
2018-03-16T22:43:50.256Z,91.70
2018-03-16T22:46:17.899Z,91.30
2018-03-16T22:48:46.891Z,91.20
2018-03-16T22:51:34.795Z,91.20
2018-03-16T22:54:02.461Z,91.20
2018-03-16T22:56:30.103Z,91.10
2018-03-16T22:58:57.809Z,91.10
2018-03-16T23:01:25.511Z,91.20
2018-03-16T23:03:53.148Z,91.40
2018-03-16T23:06:20.816Z,91.40
2018-03-16T23:08:49.237Z,91.40
2018-03-16T23:11:16.919Z,91.40
2018-03-16T23:13:44.585Z,91.40
2018-03-16T23:16:12.969Z,91.30
2018-03-16T23:18:40.631Z,91.30
2018-03-16T23:21:08.268Z,91.30
2018-03-16T23:23:37.099Z,91.30
2018-03-16T23:26:04.805Z,91.30
2018-03-16T23:28:32.468Z,91.20
2018-03-16T23:31:00.870Z,91.10
2018-03-16T23:33:29.300Z,91.20
2018-03-16T23:35:56.972Z,91.10
2018-03-16T23:38:24.616Z,91.10
2018-03-16T23:40:52.310Z,91.20
2018-03-16T23:43:19.948Z,91.20
2018-03-16T23:45:47.610Z,91.30
2018-03-16T23:48:16.012Z,91.30
2018-03-16T23:50:44.459Z,91.30
2018-03-16T23:53:12.111Z,91.30
2018-03-16T23:55:39.772Z,91.20
2018-03-16T23:58:07.446Z,91.20
